createdAt,value
2019-05-14T00:03:36.000Z,1003.5
2019-05-14T00:08:48.000Z,1003.5
2019-05-14T00:14:00.000Z,1003.5
2019-05-14T00:19:12.000Z,1003.5
2019-05-14T00:24:24.000Z,1003.5
2019-05-14T00:29:37.000Z,1003.4
2019-05-14T00:34:49.000Z,1003.4
2019-05-14T00:40:01.000Z,1003.2
2019-05-14T00:45:13.000Z,1003.3
2019-05-14T00:50:26.000Z,1003.3
2019-05-14T00:55:38.000Z,1003.3
2019-05-14T01:06:02.000Z,1003.3
2019-05-14T01:11:14.000Z,1003.2
2019-05-14T01:16:27.000Z,1003.1
2019-05-14T01:21:39.000Z,1003.1
2019-05-14T01:26:51.000Z,1003
2019-05-14T01:32:03.000Z,1003
2019-05-14T01:37:16.000Z,1003
2019-05-14T01:42:28.000Z,1003
2019-05-14T01:47:40.000Z,1002.9
2019-05-14T01:52:52.000Z,1002.8
2019-05-14T01:58:05.000Z,1002.8
2019-05-14T02:03:17.000Z,1002.8
2019-05-14T02:08:29.000Z,1002.8
2019-05-14T02:18:54.000Z,1002.7
2019-05-14T02:24:06.000Z,1002.5
2019-05-14T02:29:18.000Z,1002.7
2019-05-14T02:34:30.000Z,1002.6
2019-05-14T02:39:42.000Z,1002.5
2019-05-14T02:44:55.000Z,1002.5
2019-05-14T02:50:07.000Z,1002.5
2019-05-14T02:55:19.000Z,1002.4
2019-05-14T03:00:31.000Z,1002.5
2019-05-14T03:05:44.000Z,1002.5
2019-05-14T03:10:56.000Z,1002.6
2019-05-14T03:21:20.000Z,1002.6
2019-05-14T03:26:32.000Z,1002.6
2019-05-14T03:31:45.000Z,1002.7
2019-05-14T03:36:57.000Z,1002.8
2019-05-14T03:42:09.000Z,1002.7
2019-05-14T03:47:21.000Z,1002.7
2019-05-14T03:52:33.000Z,1002.7
2019-05-14T03:57:46.000Z,1002.6
2019-05-14T04:02:58.000Z,1002.6
2019-05-14T04:08:10.000Z,1002.5
2019-05-14T04:13:22.000Z,1002.6
2019-05-14T04:18:35.000Z,1002.6
2019-05-14T04:23:47.000Z,1002.6
2019-05-14T04:28:59.000Z,1002.5
2019-05-14T04:34:11.000Z,1002.6
2019-05-14T04:39:23.000Z,1002.6
2019-05-14T04:44:35.000Z,1002.5
2019-05-14T04:49:48.000Z,1002.5
2019-05-14T04:55:00.000Z,1002.5
2019-05-14T05:05:24.000Z,1002.5
2019-05-14T05:10:36.000Z,1002.6
2019-05-14T05:15:49.000Z,1002.5
2019-05-14T05:21:01.000Z,1002.5
2019-05-14T05:26:13.000Z,1002.4
2019-05-14T05:31:25.000Z,1002.4
2019-05-14T05:36:37.000Z,1002.5
2019-05-14T05:47:02.000Z,1002.4
2019-05-14T05:52:14.000Z,1002.4
2019-05-14T05:57:26.000Z,1002.3
2019-05-14T06:02:39.000Z,1002.3
2019-05-14T06:07:51.000Z,1002.3
2019-05-14T06:13:03.000Z,1002.3
2019-05-14T06:18:15.000Z,1002.3
2019-05-14T06:23:27.000Z,1002.3
2019-05-14T06:28:40.000Z,1002.4
2019-05-14T06:33:52.000Z,1002.4
2019-05-14T06:39:04.000Z,1002.4
2019-05-14T06:44:16.000Z,1002.4
2019-05-14T06:49:29.000Z,1002.4
2019-05-14T06:54:41.000Z,1002.3
2019-05-14T06:59:53.000Z,1002.3
2019-05-14T07:05:05.000Z,1002.2
2019-05-14T07:10:18.000Z,1002.2
2019-05-14T07:15:30.000Z,1002.1
2019-05-14T07:20:42.000Z,1002.1
2019-05-14T07:25:54.000Z,1002.2
2019-05-14T07:31:07.000Z,1002.1
2019-05-14T07:36:19.000Z,1002.1
2019-05-14T07:46:43.000Z,1002.1
2019-05-14T07:51:56.000Z,1002.1
2019-05-14T07:57:08.000Z,1002
2019-05-14T08:02:20.000Z,1002
2019-05-14T08:07:32.000Z,1002
2019-05-14T08:12:45.000Z,1001.9
2019-05-14T08:17:57.000Z,1001.9
2019-05-14T08:23:09.000Z,1001.9
2019-05-14T08:28:21.000Z,1001.9
2019-05-14T08:33:34.000Z,1001.9
2019-05-14T08:38:46.000Z,1001.9
2019-05-14T08:43:58.000Z,1001.8
2019-05-14T08:49:10.000Z,1001.9
2019-05-14T08:54:23.000Z,1001.8
2019-05-14T08:59:35.000Z,1001.8
2019-05-14T09:04:47.000Z,1001.9
2019-05-14T09:09:59.000Z,1001.7
2019-05-14T09:15:12.000Z,1001.5
2019-05-14T09:20:24.000Z,1001.5
2019-05-14T09:25:36.000Z,1001.4
2019-05-14T09:36:01.000Z,1001.3
2019-05-14T09:41:13.000Z,1001.2
2019-05-14T09:46:25.000Z,1001.3
2019-05-14T09:51:37.000Z,1001.3
2019-05-14T09:56:50.000Z,1001.2
2019-05-14T10:02:02.000Z,1001.3
2019-05-14T10:07:14.000Z,1001.2
2019-05-14T10:17:39.000Z,1001.3
2019-05-14T10:22:51.000Z,1001.2
2019-05-14T10:28:03.000Z,1001.3
2019-05-14T10:33:15.000Z,1001.3
2019-05-14T10:38:28.000Z,1001.4
2019-05-14T10:43:40.000Z,1001.1
2019-05-14T10:48:52.000Z,1001
2019-05-14T10:54:04.000Z,1001
2019-05-14T10:59:17.000Z,1000.8
2019-05-14T11:04:29.000Z,1000.8
2019-05-14T11:09:41.000Z,1000.7
2019-05-14T11:14:53.000Z,1000.7
2019-05-14T11:20:06.000Z,1000.7
2019-05-14T11:25:18.000Z,1000.6
2019-05-14T11:30:30.000Z,1000.5
2019-05-14T11:35:42.000Z,1000.5
2019-05-14T11:40:55.000Z,1000.4
2019-05-14T11:46:07.000Z,1000.4
2019-05-14T11:51:19.000Z,1000.3
2019-05-14T11:56:31.000Z,1000.2
2019-05-14T12:01:43.000Z,1000.3
2019-05-14T12:06:56.000Z,1000.2
2019-05-14T12:12:08.000Z,1000
2019-05-14T12:22:32.000Z,999.8
2019-05-14T12:27:45.000Z,999.7
2019-05-14T12:32:57.000Z,999.5
2019-05-14T12:38:09.000Z,999.6
2019-05-14T12:43:21.000Z,999.6
2019-05-14T12:48:33.000Z,999.5
2019-05-14T12:53:46.000Z,999.6
2019-05-14T12:58:58.000Z,999.6
2019-05-14T13:04:10.000Z,999.5
2019-05-14T13:09:22.000Z,999.5
2019-05-14T13:14:35.000Z,999.4
2019-05-14T13:19:47.000Z,999.2
2019-05-14T13:24:59.000Z,999.3
2019-05-14T13:30:11.000Z,999.3
2019-05-14T13:35:23.000Z,999.1
2019-05-14T13:40:36.000Z,999.1
2019-05-14T13:45:48.000Z,999
2019-05-14T13:51:00.000Z,999
2019-05-14T13:56:12.000Z,999
2019-05-14T14:01:24.000Z,998.9
2019-05-14T14:06:37.000Z,998.9
2019-05-14T14:11:49.000Z,998.9
2019-05-14T14:17:01.000Z,998.8
2019-05-14T14:22:13.000Z,998.8
2019-05-14T14:27:26.000Z,998.6
2019-05-14T14:37:50.000Z,998.5
2019-05-14T14:43:02.000Z,998.4
2019-05-14T14:48:15.000Z,998.4
2019-05-14T14:53:27.000Z,998.4
2019-05-14T14:58:39.000Z,998.4
2019-05-14T15:03:51.000Z,998.4
2019-05-14T15:09:04.000Z,998.5
2019-05-14T15:14:16.000Z,998.5
2019-05-14T15:19:28.000Z,998.5
2019-05-14T15:24:40.000Z,998.4
2019-05-14T15:29:53.000Z,998.2
2019-05-14T15:35:05.000Z,998.2
2019-05-14T15:40:17.000Z,998.1
2019-05-14T15:45:30.000Z,998.1
2019-05-14T15:50:42.000Z,998.1
2019-05-14T16:01:07.000Z,998
2019-05-14T16:06:20.000Z,997.9
2019-05-14T16:11:32.000Z,998
2019-05-14T16:16:44.000Z,997.9
2019-05-14T16:21:57.000Z,997.9
2019-05-14T16:27:09.000Z,997.9
2019-05-14T16:32:22.000Z,997.9
2019-05-14T16:37:34.000Z,997.7
2019-05-14T16:42:47.000Z,997.7
2019-05-14T16:47:59.000Z,997.8
2019-05-14T16:53:12.000Z,997.9
2019-05-14T16:58:24.000Z,997.8
2019-05-14T17:03:37.000Z,997.7
2019-05-14T17:08:49.000Z,997.8
2019-05-14T17:14:01.000Z,997.7
2019-05-14T17:19:14.000Z,997.8
2019-05-14T17:29:39.000Z,997.8
2019-05-14T17:34:51.000Z,997.7
2019-05-14T17:40:04.000Z,997.7
2019-05-14T17:45:16.000Z,997.6
2019-05-14T17:50:28.000Z,997.7
2019-05-14T17:55:41.000Z,997.7
2019-05-14T18:06:06.000Z,997.6
2019-05-14T18:11:18.000Z,997.6
2019-05-14T18:16:30.000Z,997.6
2019-05-14T18:26:55.000Z,997.5
2019-05-14T18:32:07.000Z,997.6
2019-05-14T18:37:20.000Z,997.5
2019-05-14T18:42:32.000Z,997.5
2019-05-14T18:52:57.000Z,997.5
2019-05-14T18:58:09.000Z,997.6
2019-05-14T19:03:22.000Z,997.6
2019-05-14T19:08:34.000Z,997.5
2019-05-14T19:13:46.000Z,997.5
2019-05-14T19:24:11.000Z,997.4
2019-05-14T19:29:24.000Z,997.4
2019-05-14T19:34:36.000Z,997.4
2019-05-14T19:45:01.000Z,997.5
2019-05-14T19:50:13.000Z,997.5
2019-05-14T19:55:25.000Z,997.4
2019-05-14T20:00:38.000Z,997.5
2019-05-14T20:05:50.000Z,997.4
2019-05-14T20:11:02.000Z,997.4
2019-05-14T20:16:15.000Z,997.3
2019-05-14T20:21:27.000Z,997.5
2019-05-14T20:26:39.000Z,997.5
2019-05-14T20:31:52.000Z,997.4
2019-05-14T20:37:04.000Z,997.4
2019-05-14T20:42:16.000Z,997.4
2019-05-14T20:47:29.000Z,997.3
2019-05-14T20:52:41.000Z,997.3
2019-05-14T20:57:53.000Z,997.3
2019-05-14T21:03:05.000Z,997.3
2019-05-14T21:08:18.000Z,997.2
2019-05-14T21:13:30.000Z,997.2
2019-05-14T21:18:42.000Z,997.2
2019-05-14T21:23:55.000Z,997.2
2019-05-14T21:29:07.000Z,997.2
2019-05-14T21:34:19.000Z,997.1
2019-05-14T21:39:31.000Z,997.1
2019-05-14T21:44:44.000Z,997.1
2019-05-14T21:55:08.000Z,997.1
2019-05-14T22:00:20.000Z,997
2019-05-14T22:05:33.000Z,997
2019-05-14T22:10:45.000Z,997
2019-05-14T22:15:57.000Z,997
2019-05-14T22:21:09.000Z,997
2019-05-14T22:26:22.000Z,996.9
2019-05-14T22:31:34.000Z,996.9
2019-05-14T22:36:46.000Z,996.9
2019-05-14T22:41:58.000Z,996.9
2019-05-14T22:47:11.000Z,996.8
2019-05-14T22:52:23.000Z,996.8
2019-05-14T22:57:35.000Z,996.8
2019-05-14T23:08:00.000Z,996.7
2019-05-14T23:13:12.000Z,996.8
2019-05-14T23:18:24.000Z,996.8
2019-05-14T23:23:36.000Z,996.7
2019-05-14T23:28:48.000Z,996.7
2019-05-14T23:34:01.000Z,996.7
2019-05-14T23:39:13.000Z,996.6
2019-05-14T23:44:25.000Z,996.6
2019-05-14T23:49:37.000Z,996.5
